sensor_id;sensor_type;location;lat;lon;timestamp;P1;durP1;ratioP1;P2;durP2;ratioP2
9708;SDS011;4893;42.024;23.098;2022-08-03T07:33:33;5.10;;;1.40;;
9708;SDS011;4893;42.024;23.098;2022-08-03T07:35:59;32.03;;;3.57;;
9708;SDS011;4893;42.024;23.098;2022-08-03T07:38:24;10.50;;;2.00;;
9708;SDS011;4893;42.024;23.098;2022-08-03T07:40:50;14.33;;;3.30;;
9708;SDS011;4893;42.024;23.098;2022-08-03T07:43:15;2.83;;;1.30;;
9708;SDS011;4893;42.024;23.098;2022-08-03T07:45:41;10.47;;;1.33;;
9708;SDS011;4893;42.024;23.098;2022-08-03T07:48:07;6.17;;;1.60;;
9708;SDS011;4893;42.024;23.098;2022-08-03T07:50:32;5.60;;;1.20;;
9708;SDS011;4893;42.024;23.098;2022-08-03T07:52:58;5.00;;;1.30;;
9708;SDS011;4893;42.024;23.098;2022-08-03T07:55:24;2.80;;;1.03;;
9708;SDS011;4893;42.024;23.098;2022-08-03T07:58:02;2.77;;;0.90;;
9708;SDS011;4893;42.024;23.098;2022-08-03T08:00:36;2.90;;;1.10;;
9708;SDS011;4893;42.024;23.098;2022-08-03T08:03:02;6.90;;;1.60;;
9708;SDS011;4893;42.024;23.098;2022-08-03T08:21:44;1.60;;;1.00;;
9708;SDS011;4893;42.024;23.098;2022-08-03T08:24:09;3.27;;;0.90;;
9708;SDS011;4893;42.024;23.098;2022-08-03T08:26:35;5.27;;;1.00;;
9708;SDS011;4893;42.024;23.098;2022-08-03T08:29:02;2.23;;;0.90;;
9708;SDS011;4893;42.024;23.098;2022-08-03T08:31:28;10.17;;;1.30;;
9708;SDS011;4893;42.024;23.098;2022-08-03T08:33:53;3.03;;;1.10;;
9708;SDS011;4893;42.024;23.098;2022-08-03T08:36:19;8.97;;;1.00;;
9708;SDS011;4893;42.024;23.098;2022-08-03T08:38:44;4.70;;;3.20;;
9708;SDS011;4893;42.024;23.098;2022-08-03T08:41:10;7.33;;;2.90;;
9708;SDS011;4893;42.024;23.098;2022-08-03T08:43:37;0.97;;;0.97;;
9708;SDS011;4893;42.024;23.098;2022-08-03T08:46:02;5.17;;;1.03;;
9708;SDS011;4893;42.024;23.098;2022-08-03T08:48:32;10.10;;;3.70;;
9708;SDS011;4893;42.024;23.098;2022-08-03T08:51:03;7.00;;;1.33;;
9708;SDS011;4893;42.024;23.098;2022-08-03T08:53:30;6.27;;;1.47;;
9708;SDS011;4893;42.024;23.098;2022-08-03T08:55:59;1.77;;;1.40;;
9708;SDS011;4893;42.024;23.098;2022-08-03T08:58:32;6.87;;;1.60;;
9708;SDS011;4893;42.024;23.098;2022-08-03T09:01:01;4.80;;;1.20;;
9708;SDS011;4893;42.024;23.098;2022-08-03T09:03:26;1.00;;;1.00;;
9708;SDS011;4893;42.024;23.098;2022-08-03T09:05:52;1.37;;;1.27;;
9708;SDS011;4893;42.024;23.098;2022-08-03T09:08:18;2.27;;;1.00;;
9708;SDS011;4893;42.024;23.098;2022-08-03T09:10:44;2.63;;;1.20;;
9708;SDS011;4893;42.024;23.098;2022-08-03T09:13:09;1.57;;;0.67;;
9708;SDS011;4893;42.024;23.098;2022-08-03T09:15:35;0.70;;;0.70;;
9708;SDS011;4893;42.024;23.098;2022-08-03T09:18:03;0.70;;;0.70;;
9708;SDS011;4893;42.024;23.098;2022-08-03T09:20:30;5.40;;;2.13;;
9708;SDS011;4893;42.024;23.098;2022-08-03T09:22:58;3.40;;;0.73;;
9708;SDS011;4893;42.024;23.098;2022-08-03T09:28:11;1.50;;;0.73;;
9708;SDS011;4893;42.024;23.098;2022-08-03T09:30:42;5.60;;;1.80;;
9708;SDS011;4893;42.024;23.098;2022-08-03T09:33:11;1.97;;;1.00;;
9708;SDS011;4893;42.024;23.098;2022-08-03T09:35:44;4.90;;;1.10;;
9708;SDS011;4893;42.024;23.098;2022-08-03T09:40:51;1.10;;;0.97;;
9708;SDS011;4893;42.024;23.098;2022-08-03T09:43:17;4.20;;;0.90;;
9708;SDS011;4893;42.024;23.098;2022-08-03T09:45:43;8.03;;;1.20;;
9708;SDS011;4893;42.024;23.098;2022-08-03T09:48:28;6.90;;;1.20;;
9708;SDS011;4893;42.024;23.098;2022-08-03T09:50:59;2.13;;;0.53;;
9708;SDS011;4893;42.024;23.098;2022-08-03T09:53:26;1.70;;;0.50;;
9708;SDS011;4893;42.024;23.098;2022-08-03T09:55:55;0.53;;;0.40;;
9708;SDS011;4893;42.024;23.098;2022-08-03T09:58:23;2.27;;;0.60;;
9708;SDS011;4893;42.024;23.098;2022-08-03T10:03:26;2.17;;;0.70;;
9708;SDS011;4893;42.024;23.098;2022-08-03T10:05:53;0.97;;;0.80;;
9708;SDS011;4893;42.024;23.098;2022-08-03T10:08:19;1.97;;;0.60;;
9708;SDS011;4893;42.024;23.098;2022-08-03T10:10:46;2.73;;;0.80;;
9708;SDS011;4893;42.024;23.098;2022-08-03T10:13:14;2.10;;;0.70;;
9708;SDS011;4893;42.024;23.098;2022-08-03T10:15:43;4.30;;;0.60;;
9708;SDS011;4893;42.024;23.098;2022-08-03T10:18:10;5.03;;;0.77;;
9708;SDS011;4893;42.024;23.098;2022-08-03T10:20:36;2.33;;;0.80;;
9708;SDS011;4893;42.024;23.098;2022-08-03T10:23:05;3.43;;;3.23;;
9708;SDS011;4893;42.024;23.098;2022-08-03T10:25:33;5.80;;;0.70;;
9708;SDS011;4893;42.024;23.098;2022-08-03T10:28:01;1.60;;;0.60;;
9708;SDS011;4893;42.024;23.098;2022-08-03T10:30:28;1.53;;;0.80;;
9708;SDS011;4893;42.024;23.098;2022-08-03T10:33:01;0.60;;;0.60;;
9708;SDS011;4893;42.024;23.098;2022-08-03T10:35:33;1.00;;;1.00;;
9708;SDS011;4893;42.024;23.098;2022-08-03T10:38:03;7.53;;;2.60;;
9708;SDS011;4893;42.024;23.098;2022-08-03T10:40:36;1.67;;;0.70;;
9708;SDS011;4893;42.024;23.098;2022-08-03T10:43:04;2.40;;;0.70;;
9708;SDS011;4893;42.024;23.098;2022-08-03T10:45:34;2.33;;;2.17;;
9708;SDS011;4893;42.024;23.098;2022-08-03T10:48:02;0.83;;;0.83;;
9708;SDS011;4893;42.024;23.098;2022-08-03T10:50:29;2.40;;;1.20;;
9708;SDS011;4893;42.024;23.098;2022-08-03T10:53:01;4.50;;;1.30;;
9708;SDS011;4893;42.024;23.098;2022-08-03T10:55:34;1.23;;;1.10;;
9708;SDS011;4893;42.024;23.098;2022-08-03T11:01:01;2.70;;;0.90;;
9708;SDS011;4893;42.024;23.098;2022-08-03T11:03:32;2.00;;;1.20;;
9708;SDS011;4893;42.024;23.098;2022-08-03T11:06:14;3.07;;;0.90;;
9708;SDS011;4893;42.024;23.098;2022-08-03T11:08:44;2.23;;;1.43;;
9708;SDS011;4893;42.024;23.098;2022-08-03T11:16:41;1.20;;;1.10;;
9708;SDS011;4893;42.024;23.098;2022-08-03T11:19:16;2.10;;;2.00;;
9708;SDS011;4893;42.024;23.098;2022-08-03T11:35:17;1.40;;;1.30;;
9708;SDS011;4893;42.024;23.098;2022-08-03T11:43:04;2.97;;;1.00;;
9708;SDS011;4893;42.024;23.098;2022-08-03T11:45:30;1.60;;;1.07;;
9708;SDS011;4893;42.024;23.098;2022-08-03T11:47:56;1.13;;;0.93;;
9708;SDS011;4893;42.024;23.098;2022-08-03T11:50:23;2.53;;;1.00;;
9708;SDS011;4893;42.024;23.098;2022-08-03T11:52:49;1.73;;;1.23;;
9708;SDS011;4893;42.024;23.098;2022-08-03T11:55:17;1.20;;;1.20;;
9708;SDS011;4893;42.024;23.098;2022-08-03T11:57:45;2.57;;;1.00;;
9708;SDS011;4893;42.024;23.098;2022-08-03T12:03:07;1.63;;;1.30;;
9708;SDS011;4893;42.024;23.098;2022-08-03T12:05:36;2.00;;;0.93;;
9708;SDS011;4893;42.024;23.098;2022-08-03T12:08:02;1.43;;;1.37;;
9708;SDS011;4893;42.024;23.098;2022-08-03T12:10:28;2.83;;;2.10;;
9708;SDS011;4893;42.024;23.098;2022-08-03T12:12:57;1.80;;;1.70;;
9708;SDS011;4893;42.024;23.098;2022-08-03T12:15:28;1.43;;;1.33;;
9708;SDS011;4893;42.024;23.098;2022-08-03T12:17:54;3.57;;;1.30;;
9708;SDS011;4893;42.024;23.098;2022-08-03T12:20:22;3.50;;;1.30;;
9708;SDS011;4893;42.024;23.098;2022-08-03T12:22:49;1.40;;;1.30;;
9708;SDS011;4893;42.024;23.098;2022-08-03T12:25:22;3.73;;;1.50;;
9708;SDS011;4893;42.024;23.098;2022-08-03T12:27:50;1.67;;;1.57;;
9708;SDS011;4893;42.024;23.098;2022-08-03T12:30:17;2.40;;;1.40;;
9708;SDS011;4893;42.024;23.098;2022-08-03T12:32:43;4.77;;;1.50;;
9708;SDS011;4893;42.024;23.098;2022-08-03T12:35:09;3.60;;;2.10;;
9708;SDS011;4893;42.024;23.098;2022-08-03T12:37:35;3.20;;;1.60;;
9708;SDS011;4893;42.024;23.098;2022-08-03T12:40:01;2.53;;;1.77;;
9708;SDS011;4893;42.024;23.098;2022-08-03T12:42:29;1.87;;;1.20;;
9708;SDS011;4893;42.024;23.098;2022-08-03T12:44:56;1.20;;;1.20;;
9708;SDS011;4893;42.024;23.098;2022-08-03T12:47:22;4.53;;;1.13;;
9708;SDS011;4893;42.024;23.098;2022-08-03T12:49:48;2.63;;;2.37;;
9708;SDS011;4893;42.024;23.098;2022-08-03T12:52:15;1.67;;;1.60;;
9708;SDS011;4893;42.024;23.098;2022-08-03T12:54:42;2.60;;;1.53;;
9708;SDS011;4893;42.024;23.098;2022-08-03T12:57:17;1.23;;;1.23;;
9708;SDS011;4893;42.024;23.098;2022-08-03T12:59:44;3.50;;;1.43;;
9708;SDS011;4893;42.024;23.098;2022-08-03T13:02:21;2.83;;;1.33;;
9708;SDS011;4893;42.024;23.098;2022-08-03T13:04:51;4.23;;;1.60;;
9708;SDS011;4893;42.024;23.098;2022-08-03T13:07:18;3.90;;;1.80;;
9708;SDS011;4893;42.024;23.098;2022-08-03T13:09:45;1.17;;;1.13;;
9708;SDS011;4893;42.024;23.098;2022-08-03T13:12:20;3.40;;;1.30;;
9708;SDS011;4893;42.024;23.098;2022-08-03T13:14:49;4.17;;;1.33;;
9708;SDS011;4893;42.024;23.098;2022-08-03T13:17:16;4.33;;;1.00;;
9708;SDS011;4893;42.024;23.098;2022-08-03T13:19:43;2.83;;;1.00;;
9708;SDS011;4893;42.024;23.098;2022-08-03T13:25:01;2.83;;;0.80;;
9708;SDS011;4893;42.024;23.098;2022-08-03T13:27:28;0.83;;;0.80;;
9708;SDS011;4893;42.024;23.098;2022-08-03T13:29:54;0.97;;;0.97;;
9708;SDS011;4893;42.024;23.098;2022-08-03T13:32:20;0.70;;;0.70;;
9708;SDS011;4893;42.024;23.098;2022-08-03T13:34:46;1.03;;;0.70;;
9708;SDS011;4893;42.024;23.098;2022-08-03T13:37:12;1.53;;;0.60;;
9708;SDS011;4893;42.024;23.098;2022-08-03T13:39:38;0.63;;;0.63;;
9708;SDS011;4893;42.024;23.098;2022-08-03T13:42:05;1.03;;;0.80;;
9708;SDS011;4893;42.024;23.098;2022-08-03T13:44:31;0.60;;;0.60;;
9708;SDS011;4893;42.024;23.098;2022-08-03T13:46:57;0.50;;;0.50;;
9708;SDS011;4893;42.024;23.098;2022-08-03T13:49:25;0.60;;;0.60;;
9708;SDS011;4893;42.024;23.098;2022-08-03T13:51:51;1.80;;;0.47;;
9708;SDS011;4893;42.024;23.098;2022-08-03T13:54:16;0.73;;;0.73;;
9708;SDS011;4893;42.024;23.098;2022-08-03T13:56:43;0.93;;;0.93;;
9708;SDS011;4893;42.024;23.098;2022-08-03T13:59:14;1.80;;;0.70;;
9708;SDS011;4893;42.024;23.098;2022-08-03T14:01:39;1.97;;;0.40;;
9708;SDS011;4893;42.024;23.098;2022-08-03T14:04:04;0.67;;;0.50;;
9708;SDS011;4893;42.024;23.098;2022-08-03T14:06:30;2.20;;;0.50;;
9708;SDS011;4893;42.024;23.098;2022-08-03T14:08:55;1.70;;;0.80;;
9708;SDS011;4893;42.024;23.098;2022-08-03T14:11:21;0.83;;;0.70;;
9708;SDS011;4893;42.024;23.098;2022-08-03T14:13:46;0.50;;;0.50;;
9708;SDS011;4893;42.024;23.098;2022-08-03T14:16:12;1.50;;;1.47;;
9708;SDS011;4893;42.024;23.098;2022-08-03T14:18:37;0.50;;;0.50;;
9708;SDS011;4893;42.024;23.098;2022-08-03T14:21:03;0.50;;;0.50;;
9708;SDS011;4893;42.024;23.098;2022-08-03T14:23:29;0.60;;;0.60;;
9708;SDS011;4893;42.024;23.098;2022-08-03T14:25:56;0.60;;;0.60;;
9708;SDS011;4893;42.024;23.098;2022-08-03T14:28:22;0.40;;;0.40;;
9708;SDS011;4893;42.024;23.098;2022-08-03T14:30:48;1.90;;;0.70;;
9708;SDS011;4893;42.024;23.098;2022-08-03T14:33:27;0.63;;;0.50;;
9708;SDS011;4893;42.024;23.098;2022-08-03T14:35:53;1.47;;;0.60;;
9708;SDS011;4893;42.024;23.098;2022-08-03T14:38:19;2.70;;;0.73;;
9708;SDS011;4893;42.024;23.098;2022-08-03T14:40:45;0.57;;;0.50;;
9708;SDS011;4893;42.024;23.098;2022-08-03T14:43:11;0.40;;;0.40;;
9708;SDS011;4893;42.024;23.098;2022-08-03T14:45:37;0.30;;;0.30;;
9708;SDS011;4893;42.024;23.098;2022-08-03T14:48:03;0.50;;;0.50;;
9708;SDS011;4893;42.024;23.098;2022-08-03T14:50:29;0.77;;;0.50;;
9708;SDS011;4893;42.024;23.098;2022-08-03T14:52:54;1.00;;;1.00;;
9708;SDS011;4893;42.024;23.098;2022-08-03T14:55:20;0.60;;;0.60;;
9708;SDS011;4893;42.024;23.098;2022-08-03T14:57:46;0.50;;;0.50;;
9708;SDS011;4893;42.024;23.098;2022-08-03T15:00:17;1.57;;;0.70;;
9708;SDS011;4893;42.024;23.098;2022-08-03T15:02:42;0.50;;;0.50;;
9708;SDS011;4893;42.024;23.098;2022-08-03T15:05:08;1.50;;;1.00;;
9708;SDS011;4893;42.024;23.098;2022-08-03T15:07:36;0.80;;;0.80;;
9708;SDS011;4893;42.024;23.098;2022-08-03T15:10:02;0.60;;;0.60;;
9708;SDS011;4893;42.024;23.098;2022-08-03T15:12:28;0.43;;;0.43;;
9708;SDS011;4893;42.024;23.098;2022-08-03T15:14:53;2.67;;;0.70;;
9708;SDS011;4893;42.024;23.098;2022-08-03T15:17:19;0.73;;;0.70;;
9708;SDS011;4893;42.024;23.098;2022-08-03T15:19:44;0.60;;;0.60;;
9708;SDS011;4893;42.024;23.098;2022-08-03T15:22:09;0.80;;;0.80;;
9708;SDS011;4893;42.024;23.098;2022-08-03T15:24:35;1.03;;;1.00;;
9708;SDS011;4893;42.024;23.098;2022-08-03T15:27:00;2.73;;;1.47;;
9708;SDS011;4893;42.024;23.098;2022-08-03T15:29:25;3.13;;;1.50;;
9708;SDS011;4893;42.024;23.098;2022-08-03T15:31:51;0.80;;;0.80;;
9708;SDS011;4893;42.024;23.098;2022-08-03T15:34:16;0.83;;;0.83;;
9708;SDS011;4893;42.024;23.098;2022-08-03T15:36:42;1.20;;;1.20;;
9708;SDS011;4893;42.024;23.098;2022-08-03T15:39:14;2.87;;;1.20;;
9708;SDS011;4893;42.024;23.098;2022-08-03T15:41:40;1.40;;;1.40;;
9708;SDS011;4893;42.024;23.098;2022-08-03T15:44:05;1.77;;;1.77;;
9708;SDS011;4893;42.024;23.098;2022-08-03T15:46:31;2.83;;;1.90;;
9708;SDS011;4893;42.024;23.098;2022-08-03T15:48:58;1.90;;;1.90;;
9708;SDS011;4893;42.024;23.098;2022-08-03T15:51:24;3.30;;;2.23;;
9708;SDS011;4893;42.024;23.098;2022-08-03T15:53:49;1.80;;;1.80;;
9708;SDS011;4893;42.024;23.098;2022-08-03T15:56:15;1.60;;;1.60;;
9708;SDS011;4893;42.024;23.098;2022-08-03T15:58:40;1.67;;;1.63;;
9708;SDS011;4893;42.024;23.098;2022-08-03T16:01:12;1.80;;;1.80;;
9708;SDS011;4893;42.024;23.098;2022-08-03T16:03:38;1.50;;;1.50;;
9708;SDS011;4893;42.024;23.098;2022-08-03T16:06:07;1.80;;;1.80;;
9708;SDS011;4893;42.024;23.098;2022-08-03T16:08:32;1.80;;;1.70;;
9708;SDS011;4893;42.024;23.098;2022-08-03T16:10:58;1.90;;;1.70;;
9708;SDS011;4893;42.024;23.098;2022-08-03T16:13:24;1.60;;;1.60;;
9708;SDS011;4893;42.024;23.098;2022-08-03T16:15:50;1.63;;;1.63;;
9708;SDS011;4893;42.024;23.098;2022-08-03T16:18:16;1.60;;;1.60;;
9708;SDS011;4893;42.024;23.098;2022-08-03T16:20:42;1.50;;;1.43;;
9708;SDS011;4893;42.024;23.098;2022-08-03T16:23:09;1.40;;;1.33;;
9708;SDS011;4893;42.024;23.098;2022-08-03T16:25:34;1.47;;;1.47;;
9708;SDS011;4893;42.024;23.098;2022-08-03T16:28:00;1.77;;;1.67;;
9708;SDS011;4893;42.024;23.098;2022-08-03T16:30:27;1.40;;;1.40;;
9708;SDS011;4893;42.024;23.098;2022-08-03T16:32:52;2.07;;;1.90;;
9708;SDS011;4893;42.024;23.098;2022-08-03T16:35:18;5.30;;;4.93;;
9708;SDS011;4893;42.024;23.098;2022-08-03T16:37:43;1.80;;;1.80;;
9708;SDS011;4893;42.024;23.098;2022-08-03T16:40:12;1.90;;;1.80;;
9708;SDS011;4893;42.024;23.098;2022-08-03T16:42:38;1.80;;;1.80;;
9708;SDS011;4893;42.024;23.098;2022-08-03T16:45:04;1.70;;;1.70;;
9708;SDS011;4893;42.024;23.098;2022-08-03T16:47:32;1.67;;;1.67;;
9708;SDS011;4893;42.024;23.098;2022-08-03T16:49:58;1.77;;;1.77;;
9708;SDS011;4893;42.024;23.098;2022-08-03T16:52:23;3.67;;;3.37;;
9708;SDS011;4893;42.024;23.098;2022-08-03T16:54:49;2.60;;;2.50;;
9708;SDS011;4893;42.024;23.098;2022-08-03T16:57:15;2.70;;;2.07;;
9708;SDS011;4893;42.024;23.098;2022-08-03T16:59:40;5.27;;;4.87;;
9708;SDS011;4893;42.024;23.098;2022-08-03T17:02:06;6.13;;;1.80;;
9708;SDS011;4893;42.024;23.098;2022-08-03T17:04:32;2.60;;;2.50;;
9708;SDS011;4893;42.024;23.098;2022-08-03T17:06:58;1.33;;;1.33;;
9708;SDS011;4893;42.024;23.098;2022-08-03T17:09:24;2.20;;;1.73;;
9708;SDS011;4893;42.024;23.098;2022-08-03T17:11:50;3.50;;;2.70;;
9708;SDS011;4893;42.024;23.098;2022-08-03T17:14:17;2.60;;;2.40;;
9708;SDS011;4893;42.024;23.098;2022-08-03T17:16:46;3.60;;;3.27;;
9708;SDS011;4893;42.024;23.098;2022-08-03T17:19:12;4.83;;;4.33;;
9708;SDS011;4893;42.024;23.098;2022-08-03T17:21:41;7.73;;;6.80;;
9708;SDS011;4893;42.024;23.098;2022-08-03T17:27:05;4.10;;;2.43;;
9708;SDS011;4893;42.024;23.098;2022-08-03T17:29:37;2.70;;;2.60;;
9708;SDS011;4893;42.024;23.098;2022-08-03T17:32:04;4.90;;;4.50;;
9708;SDS011;4893;42.024;23.098;2022-08-03T17:34:43;28.53;;;20.17;;
9708;SDS011;4893;42.024;23.098;2022-08-03T17:37:13;25.10;;;18.03;;
9708;SDS011;4893;42.024;23.098;2022-08-03T17:39:40;4.03;;;3.60;;
9708;SDS011;4893;42.024;23.098;2022-08-03T17:42:10;5.77;;;5.43;;
9708;SDS011;4893;42.024;23.098;2022-08-03T17:44:37;11.87;;;10.80;;
9708;SDS011;4893;42.024;23.098;2022-08-03T17:47:03;4.97;;;4.33;;
9708;SDS011;4893;42.024;23.098;2022-08-03T17:49:29;2.90;;;2.70;;
9708;SDS011;4893;42.024;23.098;2022-08-03T17:51:57;2.70;;;2.47;;
9708;SDS011;4893;42.024;23.098;2022-08-03T17:54:48;3.40;;;3.20;;
9708;SDS011;4893;42.024;23.098;2022-08-03T18:00:02;4.20;;;2.33;;
9708;SDS011;4893;42.024;23.098;2022-08-03T18:06:03;3.83;;;2.40;;
9708;SDS011;4893;42.024;23.098;2022-08-03T18:11:17;9.40;;;1.83;;
9708;SDS011;4893;42.024;23.098;2022-08-03T18:19:32;5.30;;;3.00;;
9708;SDS011;4893;42.024;23.098;2022-08-03T18:21:59;2.93;;;2.83;;
9708;SDS011;4893;42.024;23.098;2022-08-03T18:24:25;10.20;;;3.20;;
9708;SDS011;4893;42.024;23.098;2022-08-03T18:26:52;4.43;;;2.57;;
9708;SDS011;4893;42.024;23.098;2022-08-03T18:29:20;2.40;;;2.30;;
9708;SDS011;4893;42.024;23.098;2022-08-03T18:31:47;5.63;;;3.20;;
9708;SDS011;4893;42.024;23.098;2022-08-03T18:34:13;3.63;;;3.10;;
9708;SDS011;4893;42.024;23.098;2022-08-03T18:36:49;5.67;;;2.63;;
9708;SDS011;4893;42.024;23.098;2022-08-03T18:39:16;2.70;;;2.50;;
9708;SDS011;4893;42.024;23.098;2022-08-03T18:41:42;3.67;;;2.50;;
9708;SDS011;4893;42.024;23.098;2022-08-03T18:44:08;2.47;;;2.40;;
9708;SDS011;4893;42.024;23.098;2022-08-03T18:46:39;2.97;;;2.73;;
9708;SDS011;4893;42.024;23.098;2022-08-03T18:51:43;2.00;;;1.90;;
9708;SDS011;4893;42.024;23.098;2022-08-03T18:54:19;2.30;;;2.13;;
9708;SDS011;4893;42.024;23.098;2022-08-03T18:56:52;3.07;;;2.37;;
9708;SDS011;4893;42.024;23.098;2022-08-03T18:59:22;3.17;;;3.07;;
9708;SDS011;4893;42.024;23.098;2022-08-03T19:01:52;3.10;;;2.90;;
9708;SDS011;4893;42.024;23.098;2022-08-03T19:06:52;3.20;;;3.03;;
9708;SDS011;4893;42.024;23.098;2022-08-03T19:12:05;2.90;;;2.80;;
9708;SDS011;4893;42.024;23.098;2022-08-03T19:14:42;3.10;;;2.97;;
9708;SDS011;4893;42.024;23.098;2022-08-03T19:17:11;2.73;;;2.50;;
9708;SDS011;4893;42.024;23.098;2022-08-03T19:19:38;2.73;;;2.70;;
9708;SDS011;4893;42.024;23.098;2022-08-03T19:22:09;2.87;;;2.77;;
9708;SDS011;4893;42.024;23.098;2022-08-03T19:24:37;3.17;;;2.90;;
9708;SDS011;4893;42.024;23.098;2022-08-03T19:27:04;2.70;;;2.70;;
9708;SDS011;4893;42.024;23.098;2022-08-03T19:29:32;2.47;;;2.37;;
9708;SDS011;4893;42.024;23.098;2022-08-03T19:32:01;2.90;;;2.80;;
9708;SDS011;4893;42.024;23.098;2022-08-03T19:34:28;3.53;;;3.33;;
9708;SDS011;4893;42.024;23.098;2022-08-03T19:39:23;3.50;;;3.40;;
9708;SDS011;4893;42.024;23.098;2022-08-03T19:41:50;2.93;;;2.80;;
9708;SDS011;4893;42.024;23.098;2022-08-03T19:44:18;2.80;;;2.70;;
9708;SDS011;4893;42.024;23.098;2022-08-03T19:46:53;3.07;;;2.53;;
9708;SDS011;4893;42.024;23.098;2022-08-03T19:49:25;3.67;;;2.60;;
9708;SDS011;4893;42.024;23.098;2022-08-03T19:51:54;2.90;;;2.80;;
9708;SDS011;4893;42.024;23.098;2022-08-03T19:54:22;2.70;;;2.60;;
9708;SDS011;4893;42.024;23.098;2022-08-03T19:56:51;2.63;;;2.63;;
9708;SDS011;4893;42.024;23.098;2022-08-03T19:59:19;3.50;;;2.93;;
9708;SDS011;4893;42.024;23.098;2022-08-03T20:01:47;2.77;;;2.70;;
9708;SDS011;4893;42.024;23.098;2022-08-03T20:04:13;2.77;;;2.67;;
9708;SDS011;4893;42.024;23.098;2022-08-03T20:06:39;3.93;;;3.63;;
9708;SDS011;4893;42.024;23.098;2022-08-03T20:09:04;2.63;;;2.53;;
9708;SDS011;4893;42.024;23.098;2022-08-03T20:11:31;2.90;;;2.80;;
9708;SDS011;4893;42.024;23.098;2022-08-03T20:13:57;2.97;;;2.73;;
9708;SDS011;4893;42.024;23.098;2022-08-03T20:16:23;2.60;;;2.60;;
9708;SDS011;4893;42.024;23.098;2022-08-03T20:18:48;2.57;;;2.40;;
9708;SDS011;4893;42.024;23.098;2022-08-03T20:21:14;2.90;;;2.70;;
9708;SDS011;4893;42.024;23.098;2022-08-03T20:23:42;2.70;;;2.70;;
9708;SDS011;4893;42.024;23.098;2022-08-03T20:26:08;2.77;;;2.47;;
9708;SDS011;4893;42.024;23.098;2022-08-03T20:28:46;2.80;;;2.80;;
9708;SDS011;4893;42.024;23.098;2022-08-03T20:31:13;3.00;;;2.80;;
9708;SDS011;4893;42.024;23.098;2022-08-03T20:33:39;3.00;;;2.90;;
9708;SDS011;4893;42.024;23.098;2022-08-03T20:36:04;3.60;;;3.50;;
9708;SDS011;4893;42.024;23.098;2022-08-03T20:38:30;2.20;;;2.10;;
9708;SDS011;4893;42.024;23.098;2022-08-03T20:40:55;2.60;;;2.60;;
9708;SDS011;4893;42.024;23.098;2022-08-03T20:43:21;2.80;;;2.70;;
9708;SDS011;4893;42.024;23.098;2022-08-03T20:45:47;2.37;;;2.17;;
9708;SDS011;4893;42.024;23.098;2022-08-03T20:48:13;2.60;;;2.40;;
9708;SDS011;4893;42.024;23.098;2022-08-03T20:50:39;2.40;;;2.30;;
9708;SDS011;4893;42.024;23.098;2022-08-03T20:53:05;2.80;;;2.70;;
9708;SDS011;4893;42.024;23.098;2022-08-03T20:55:31;3.60;;;2.60;;
9708;SDS011;4893;42.024;23.098;2022-08-03T20:57:58;3.70;;;3.40;;
9708;SDS011;4893;42.024;23.098;2022-08-03T21:00:24;3.37;;;2.80;;
9708;SDS011;4893;42.024;23.098;2022-08-03T21:02:50;2.37;;;2.30;;
9708;SDS011;4893;42.024;23.098;2022-08-03T21:05:16;2.83;;;2.77;;
9708;SDS011;4893;42.024;23.098;2022-08-03T21:07:45;3.00;;;2.90;;
9708;SDS011;4893;42.024;23.098;2022-08-03T21:10:15;3.37;;;3.07;;
9708;SDS011;4893;42.024;23.098;2022-08-03T21:12:52;3.10;;;3.00;;
9708;SDS011;4893;42.024;23.098;2022-08-03T21:15:28;2.53;;;2.43;;
9708;SDS011;4893;42.024;23.098;2022-08-03T21:17:58;3.20;;;2.73;;
9708;SDS011;4893;42.024;23.098;2022-08-03T21:20:33;2.90;;;2.80;;
9708;SDS011;4893;42.024;23.098;2022-08-03T21:22:59;2.77;;;2.70;;
9708;SDS011;4893;42.024;23.098;2022-08-03T21:25:28;2.70;;;2.50;;
9708;SDS011;4893;42.024;23.098;2022-08-03T21:27:56;2.60;;;2.60;;
9708;SDS011;4893;42.024;23.098;2022-08-03T21:30:23;4.30;;;4.00;;
9708;SDS011;4893;42.024;23.098;2022-08-03T21:32:50;2.77;;;2.67;;
9708;SDS011;4893;42.024;23.098;2022-08-03T21:35:17;3.00;;;2.90;;
9708;SDS011;4893;42.024;23.098;2022-08-03T21:37:43;2.70;;;2.60;;
9708;SDS011;4893;42.024;23.098;2022-08-03T21:40:11;2.80;;;2.60;;
9708;SDS011;4893;42.024;23.098;2022-08-03T21:42:41;2.77;;;2.50;;
9708;SDS011;4893;42.024;23.098;2022-08-03T21:45:09;2.60;;;2.53;;
9708;SDS011;4893;42.024;23.098;2022-08-03T21:47:37;3.60;;;2.90;;
9708;SDS011;4893;42.024;23.098;2022-08-03T21:50:06;8.63;;;2.33;;
9708;SDS011;4893;42.024;23.098;2022-08-03T21:52:34;3.10;;;2.53;;
9708;SDS011;4893;42.024;23.098;2022-08-03T21:55:05;2.53;;;2.43;;
9708;SDS011;4893;42.024;23.098;2022-08-03T21:57:32;3.10;;;3.00;;
9708;SDS011;4893;42.024;23.098;2022-08-03T22:02:38;2.77;;;2.70;;
9708;SDS011;4893;42.024;23.098;2022-08-03T22:05:15;2.77;;;2.67;;
9708;SDS011;4893;42.024;23.098;2022-08-03T22:07:42;2.37;;;2.27;;
9708;SDS011;4893;42.024;23.098;2022-08-03T22:10:09;2.97;;;2.70;;
9708;SDS011;4893;42.024;23.098;2022-08-03T22:12:35;2.13;;;2.10;;
9708;SDS011;4893;42.024;23.098;2022-08-03T22:15:01;2.33;;;2.33;;
9708;SDS011;4893;42.024;23.098;2022-08-03T22:17:30;2.37;;;2.27;;
9708;SDS011;4893;42.024;23.098;2022-08-03T22:19:57;2.30;;;2.30;;
9708;SDS011;4893;42.024;23.098;2022-08-03T22:22:24;2.37;;;2.33;;
9708;SDS011;4893;42.024;23.098;2022-08-03T22:24:58;1.97;;;1.93;;
9708;SDS011;4893;42.024;23.098;2022-08-03T22:27:28;2.70;;;2.20;;
9708;SDS011;4893;42.024;23.098;2022-08-03T22:30:00;2.50;;;2.30;;
9708;SDS011;4893;42.024;23.098;2022-08-03T22:32:28;2.53;;;2.43;;
9708;SDS011;4893;42.024;23.098;2022-08-03T22:34:55;2.40;;;2.30;;
9708;SDS011;4893;42.024;23.098;2022-08-03T22:37:24;2.80;;;2.20;;
9708;SDS011;4893;42.024;23.098;2022-08-03T22:39:52;2.40;;;2.30;;
9708;SDS011;4893;42.024;23.098;2022-08-03T22:42:19;2.70;;;2.70;;
9708;SDS011;4893;42.024;23.098;2022-08-03T22:44:46;2.07;;;2.07;;
9708;SDS011;4893;42.024;23.098;2022-08-03T22:47:14;2.50;;;2.30;;
9708;SDS011;4893;42.024;23.098;2022-08-03T22:49:40;3.10;;;2.80;;
9708;SDS011;4893;42.024;23.098;2022-08-03T22:52:07;2.27;;;2.20;;
9708;SDS011;4893;42.024;23.098;2022-08-03T22:54:35;2.20;;;2.10;;
9708;SDS011;4893;42.024;23.098;2022-08-03T22:57:02;4.73;;;2.17;;
9708;SDS011;4893;42.024;23.098;2022-08-03T22:59:29;2.30;;;2.20;;
9708;SDS011;4893;42.024;23.098;2022-08-03T23:01:55;2.20;;;2.20;;
9708;SDS011;4893;42.024;23.098;2022-08-03T23:04:26;2.40;;;2.30;;
9708;SDS011;4893;42.024;23.098;2022-08-03T23:06:55;3.20;;;3.10;;
9708;SDS011;4893;42.024;23.098;2022-08-03T23:09:24;3.23;;;2.80;;
9708;SDS011;4893;42.024;23.098;2022-08-03T23:11:51;2.73;;;2.53;;
9708;SDS011;4893;42.024;23.098;2022-08-03T23:14:21;2.67;;;2.60;;
9708;SDS011;4893;42.024;23.098;2022-08-03T23:16:47;1.97;;;1.97;;
9708;SDS011;4893;42.024;23.098;2022-08-03T23:21:48;2.13;;;2.10;;
9708;SDS011;4893;42.024;23.098;2022-08-03T23:24:13;2.67;;;2.57;;
9708;SDS011;4893;42.024;23.098;2022-08-03T23:26:39;2.40;;;2.37;;
9708;SDS011;4893;42.024;23.098;2022-08-03T23:29:06;2.87;;;2.63;;
9708;SDS011;4893;42.024;23.098;2022-08-03T23:31:32;2.77;;;2.57;;
9708;SDS011;4893;42.024;23.098;2022-08-03T23:33:59;2.90;;;2.50;;
9708;SDS011;4893;42.024;23.098;2022-08-03T23:36:46;2.50;;;2.30;;
9708;SDS011;4893;42.024;23.098;2022-08-03T23:39:17;2.57;;;2.40;;
9708;SDS011;4893;42.024;23.098;2022-08-03T23:41:46;2.63;;;2.50;;
9708;SDS011;4893;42.024;23.098;2022-08-03T23:44:13;2.63;;;2.43;;
9708;SDS011;4893;42.024;23.098;2022-08-03T23:46:42;2.70;;;2.50;;
9708;SDS011;4893;42.024;23.098;2022-08-03T23:49:08;2.80;;;2.70;;
